Walker, Minnesota
Current Conditions -  °F | °C
As of 6:55 AM on Saturday 25 Oct 2014 (Local Time) from KY49 Reporting Station
Clear Clear  
Wind Chill: 38°   Ceiling: Unl
Heat Index: 42°   Visibility: 10mi
Dew Point: 31°   Wind: 7mph
Humidity: 65%   Direction: 280°W
Pressure: 29.97"   Gusts: NA
Location:  47.1°N, 94.59°W
Report Text: KY49 251155Z AUTO 28006KT 10SM CLR 06/M01 A2997 RMK AO2 T00561006 10118 20056
Loading
Personal Weather Stations






























Interactive Weather Map
Tropical Storm Tracking
New forecast layout! Learn more

10-Day Weather Forecast

Advertisements
Track Severe Weather on mobile